Time;durP1;ratioP1;P1;durP2;ratioP2;P2;SDS_P1;SDS_P2;PMS_P1;PMS_P2;Temp;Humidity;BMP_temperature;BMP_pressure;BME280_temperature;BME280_humidity;BME280_pressure;Samples;Min_cycle;Max_cycle;Signal;HPM_P1;HPM_P2
2021/11/08 00:02:26;;;;;;;4.80;3.14;;;;;;;3.43;95.55;99841.06;2330228;68;20732;-77
2021/11/08 00:05:51;;;;;;;3.54;3.08;;;;;;;3.33;95.37;99824.50;2325838;68;20342;-77
2021/11/08 00:09:01;;;;;;;5.01;3.24;;;;;;;3.25;95.15;99831.09;2307374;68;20236;-77
2021/11/08 00:12:07;;;;;;;5.41;3.08;;;;;;;3.16;95.12;99831.66;2325268;68;21112;-77
2021/11/08 00:15:15;;;;;;;5.70;2.84;;;;;;;3.12;95.13;99823.81;2323928;68;20287;-77
2021/11/08 00:21:45;;;;;;;4.51;2.76;;;;;;;2.99;95.06;99831.13;2324632;68;20283;-75
2021/11/08 00:24:48;;;;;;;5.55;3.24;;;;;;;2.94;95.05;99829.22;2311274;68;20413;-74
2021/11/08 00:27:59;;;;;;;3.42;2.46;;;;;;;2.90;94.92;99824.84;2306736;68;20333;-74
2021/11/08 00:31:04;;;;;;;4.91;2.81;;;;;;;2.85;94.60;99837.47;2299715;68;732712;-75
2021/11/08 00:34:08;;;;;;;3.10;2.66;;;;;;;2.79;94.59;99831.28;2321783;68;20276;-77
2021/11/08 00:37:12;;;;;;;7.14;2.94;;;;;;;2.74;94.64;99828.56;2325262;68;20291;-77
2021/11/08 00:40:16;;;;;;;3.35;2.66;;;;;;;2.71;94.52;99828.47;2325734;68;20840;-77
2021/11/08 00:43:19;;;;;;;3.80;2.71;;;;;;;2.64;94.54;99829.94;2325777;68;20795;-77
2021/11/08 00:46:23;;;;;;;5.82;3.03;;;;;;;2.55;94.36;99831.34;2321631;66;58733;-77
2021/11/08 00:49:30;;;;;;;6.53;3.33;;;;;;;2.48;94.32;99835.34;2330147;68;20278;-77
2021/11/08 00:52:34;;;;;;;4.29;3.04;;;;;;;2.47;94.46;99843.88;2325613;68;20368;-77
2021/11/08 00:55:39;;;;;;;4.16;2.97;;;;;;;2.47;94.72;99841.28;2325404;68;20302;-77
2021/11/08 00:58:44;;;;;;;4.64;2.30;;;;;;;2.46;94.70;99843.81;2325297;68;20392;-77
2021/11/08 01:01:52;;;;;;;3.80;2.54;;;;;;;2.45;94.67;99844.63;2320854;66;132509;-77
2021/11/08 01:04:58;;;;;;;3.50;2.08;;;;;;;2.42;94.57;99848.84;2325293;68;20291;-77
2021/11/08 01:08:05;;;;;;;3.24;1.85;;;;;;;2.38;94.57;99847.00;2326242;68;20356;-77
2021/11/08 01:11:13;;;;;;;2.92;2.26;;;;;;;2.32;94.33;99849.31;2325080;68;20310;-77
2021/11/08 01:14:17;;;;;;;3.38;2.10;;;;;;;2.34;94.63;99850.25;2324928;68;20974;-77
2021/11/08 01:17:22;;;;;;;4.15;2.22;;;;;;;2.33;94.62;99847.63;2323376;66;162604;-77
2021/11/08 01:20:32;;;;;;;5.22;2.55;;;;;;;2.27;94.53;99840.59;2326480;68;20275;-77
2021/11/08 01:23:35;;;;;;;;;;;;;;;2.26;94.78;99841.41;2324303;68;20329;-77
2021/11/08 01:26:40;;;;;;;2.96;2.01;;;;;;;2.27;94.89;99839.72;2324406;68;20063;-77
2021/11/08 01:29:43;;;;;;;4.65;2.35;;;;;;;2.25;94.88;99838.81;2325916;68;20313;-77
2021/11/08 01:33:08;;;;;;;3.71;2.20;;;;;;;2.25;95.04;99843.94;2322155;66;162316;-77
2021/11/08 01:36:13;;;;;;;4.85;2.19;;;;;;;2.27;95.11;99838.03;2323893;68;20311;-77
2021/11/08 01:39:24;;;;;;;3.96;2.19;;;;;;;2.26;95.01;99837.97;2325238;68;20744;-77
2021/11/08 01:42:27;;;;;;;3.13;2.13;;;;;;;2.25;94.98;99831.13;2325422;68;20671;-77
2021/11/08 01:45:32;;;;;;;3.69;1.79;;;;;;;2.21;94.85;99839.53;2320635;66;239226;-77
2021/11/08 01:48:36;;;;;;;3.13;2.00;;;;;;;2.16;94.75;99841.06;2325556;68;20789;-77
2021/11/08 01:51:40;;;;;;;3.01;2.05;;;;;;;2.11;94.52;99851.09;2325002;68;20323;-77
2021/11/08 01:54:44;;;;;;;4.10;1.71;;;;;;;2.08;94.46;99853.56;2325799;68;20408;-77
2021/11/08 01:57:48;;;;;;;2.67;2.29;;;;;;;2.01;94.18;99860.16;2324482;68;20367;-77
2021/11/08 02:00:51;;;;;;;6.35;2.30;;;;;;;1.95;93.99;99846.22;2322409;66;22389;-77
2021/11/08 02:03:54;;;;;;;2.84;1.94;;;;;;;1.90;93.99;99856.31;2325651;68;20313;-77
2021/11/08 02:06:56;;;;;;;2.31;1.95;;;;;;;1.87;94.06;99856.19;2325022;68;20308;-77
2021/11/08 02:10:00;;;;;;;3.36;1.90;;;;;;;1.83;94.03;99867.16;2327062;68;20311;-77
2021/11/08 02:13:03;;;;;;;4.70;1.92;;;;;;;1.80;94.05;99860.22;2324956;68;20302;-77
2021/11/08 02:16:07;;;;;;;3.95;1.95;;;;;;;1.76;93.95;99870.28;2324675;68;20283;-77
2021/11/08 02:19:10;;;;;;;5.06;2.39;;;;;;;1.74;93.98;99874.47;2324429;66;33451;-77
2021/11/08 02:22:13;;;;;;;4.81;1.91;;;;;;;1.73;94.03;99872.72;2329337;68;20308;-77
2021/11/08 02:25:18;;;;;;;6.97;2.03;;;;;;;1.71;94.09;99871.78;2329673;68;20371;-77
2021/11/08 02:28:22;;;;;;;4.78;1.59;;;;;;;1.64;93.98;99870.69;2322683;68;20354;-77
2021/11/08 02:31:24;;;;;;;5.14;1.74;;;;;;;1.62;94.14;99864.66;2323496;68;23561;-77
2021/11/08 02:34:27;;;;;;;4.74;2.21;;;;;;;1.63;94.28;99876.63;2325113;68;20751;-77
2021/11/08 02:37:30;;;;;;;3.59;2.22;;;;;;;1.61;94.30;99865.44;2325636;68;20299;-76
2021/11/08 02:40:32;;;;;;;3.01;1.95;;;;;;;1.56;94.07;99856.72;2325480;68;20367;-77
2021/11/08 02:43:37;;;;;;;2.96;1.98;;;;;;;1.50;93.92;99859.03;2319915;68;20295;-77
2021/11/08 02:46:42;;;;;;;9.05;2.29;;;;;;;1.49;94.25;99870.09;2323046;66;20312;-76
2021/11/08 02:49:46;;;;;;;4.18;2.15;;;;;;;1.51;94.42;99874.44;2325193;68;20287;-77
2021/11/08 02:52:50;;;;;;;2.59;2.24;;;;;;;1.50;94.50;99869.28;2325604;68;20895;-77
2021/11/08 02:55:55;;;;;;;4.20;2.60;;;;;;;1.50;94.58;99871.84;2326430;68;20283;-77
2021/11/08 02:58:58;;;;;;;4.01;2.08;;;;;;;1.53;94.54;99871.94;2324611;68;20295;-77
2021/11/08 03:02:01;;;;;;;4.43;2.04;;;;;;;1.45;94.08;99876.78;2323651;66;21005;-77
2021/11/08 03:05:06;;;;;;;3.33;2.06;;;;;;;1.39;94.08;99873.09;2326906;68;20312;-77
2021/11/08 03:08:10;;;;;;;6.56;1.88;;;;;;;1.39;94.31;99876.50;2326223;68;20310;-77
2021/11/08 03:11:13;;;;;;;3.24;1.80;;;;;;;1.40;94.38;99872.28;2326340;68;20769;-77
2021/11/08 03:14:21;;;;;;;2.70;1.91;;;;;;;1.43;94.53;99872.38;2327501;68;20291;-77
2021/11/08 03:17:30;;;;;;;3.48;2.24;;;;;;;1.43;94.35;99875.81;2321393;66;21372;-77
2021/11/08 03:20:37;;;;;;;2.50;1.40;;;;;;;1.42;94.28;99862.97;2327350;68;20853;-77
2021/11/08 03:23:43;;;;;;;4.24;1.91;;;;;;;1.37;94.17;99867.03;2327232;68;20323;-77
2021/11/08 03:26:49;;;;;;;3.89;2.31;;;;;;;1.34;94.34;99862.69;2326840;68;20736;-77
2021/11/08 03:29:52;;;;;;;4.32;1.89;;;;;;;1.34;94.33;99856.69;2317260;68;20774;-77
2021/11/08 03:32:56;;;;;;;5.41;1.81;;;;;;;1.33;94.42;99852.38;2324128;66;40998;-77
2021/11/08 03:36:04;;;;;;;2.09;1.50;;;;;;;1.31;94.44;99851.47;2327818;68;20381;-77
2021/11/08 03:39:09;;;;;;;1.65;1.50;;;;;;;1.30;94.52;99858.25;2327747;68;20283;-77
2021/11/08 03:42:13;;;;;;;3.69;1.55;;;;;;;1.32;94.58;99863.44;2328230;68;20324;-77
2021/11/08 03:45:16;;;;;;;4.43;1.66;;;;;;;1.33;94.63;99868.59;2326835;68;21158;-77
2021/11/08 03:48:19;;;;;;;3.24;1.96;;;;;;;1.36;94.60;99870.41;2326580;67;22958;-77
2021/11/08 03:51:22;;;;;;;6.24;2.20;;;;;;;1.34;94.31;99870.34;2327797;68;20291;-77
2021/11/08 03:54:25;;;;;;;3.71;2.04;;;;;;;1.30;94.29;99873.59;2313554;68;20294;-75
2021/11/08 03:57:28;;;;;;;4.32;1.98;;;;;;;1.26;94.22;99881.06;2328064;68;20316;-75
2021/11/08 04:00:31;;;;;;;3.64;2.33;;;;;;;1.21;94.16;99875.78;2325784;66;20371;-75
2021/11/08 04:03:35;;;;;;;5.41;2.17;;;;;;;1.17;94.14;99879.91;2320826;68;20405;-75
2021/11/08 04:06:39;;;;;;;5.06;2.33;;;;;;;1.15;94.15;99890.88;2326462;68;20287;-75
2021/11/08 04:09:42;;;;;;;5.81;2.50;;;;;;;1.11;94.01;99892.44;2327099;68;20296;-75
2021/11/08 04:12:46;;;;;;;5.19;2.13;;;;;;;1.05;93.91;99892.19;2312057;68;20339;-75
2021/11/08 04:15:49;;;;;;;4.22;1.90;;;;;;;1.06;94.09;99900.72;2325343;66;24587;-75
2021/11/08 04:18:53;;;;;;;4.01;1.99;;;;;;;1.04;94.18;99904.91;2325398;68;20363;-75
2021/11/08 04:21:58;;;;;;;4.29;2.01;;;;;;;1.07;94.25;99905.03;2326494;68;20307;-75
2021/11/08 04:25:00;;;;;;;4.01;1.90;;;;;;;1.07;94.12;99905.91;2326039;68;20363;-75
2021/11/08 04:28:03;;;;;;;3.89;2.10;;;;;;;1.02;94.03;99899.72;2326277;68;20319;-75
2021/11/08 04:31:08;;;;;;;2.83;1.75;;;;;;;1.00;94.27;99900.47;2324204;66;23682;-75
2021/11/08 04:34:26;;;;;;;3.20;1.96;;;;;;;0.99;94.34;99896.19;2325811;68;20911;-74
2021/11/08 04:44:31;;;;;;;3.41;1.90;;;;;;;0.86;94.46;99905.88;2318220;68;20287;-75
2021/11/08 04:47:55;;;;;;;3.28;1.79;;;;;;;0.90;94.69;99912.03;2324486;66;22648;-75
2021/11/08 04:51:03;;;;;;;2.06;1.46;;;;;;;0.88;94.72;99906.81;2324996;68;20279;-75
2021/11/08 05:30:39;;;;;;;8.47;2.60;;;;;;;0.62;94.50;99912.50;2317767;66;22348;-76
2021/11/08 05:33:41;;;;;;;4.47;2.36;;;;;;;0.61;94.53;99910.75;2312420;68;20164;-76
2021/11/08 05:36:44;;;;;;;8.44;2.54;;;;;;;0.62;94.66;99917.63;2326119;68;20347;-76
2021/11/08 05:39:50;;;;;;;2.99;1.91;;;;;;;0.59;94.56;99918.38;2325233;68;20234;-76
2021/11/08 05:42:53;;;;;;;2.77;2.34;;;;;;;0.58;94.63;99924.28;2324858;68;20378;-76
2021/11/08 05:45:55;;;;;;;4.38;2.36;;;;;;;0.55;94.60;99924.16;2309844;66;23148;-76
2021/11/08 05:48:58;;;;;;;4.81;2.61;;;;;;;0.56;94.67;99931.00;2326007;68;20291;-76
2021/11/08 05:52:02;;;;;;;4.34;2.56;;;;;;;0.57;94.68;99934.44;2325515;68;20426;-75
2021/11/08 05:55:05;;;;;;;3.85;2.28;;;;;;;0.51;94.37;99929.91;2326780;68;20290;-76
2021/11/08 06:52:22;;;;;;;4.70;2.21;;;;;;;0.81;94.92;99963.59;2326629;68;20294;-77
2021/11/08 06:55:25;;;;;;;4.29;2.84;;;;;;;0.89;94.94;99976.72;2326058;68;20163;-77
2021/11/08 06:58:28;;;;;;;4.63;2.66;;;;;;;0.93;94.78;99977.75;2326027;68;20291;-78
2021/11/08 07:01:32;;;;;;;5.07;3.42;;;;;;;0.95;94.71;99981.22;2325963;67;21254;-78
2021/11/08 07:04:34;;;;;;;7.29;3.83;;;;;;;1.01;94.78;99992.59;2327421;68;20163;-77
2021/11/08 07:07:37;;;;;;;5.21;3.56;;;;;;;1.07;94.70;99991.97;2326397;68;20297;-77
2021/11/08 07:10:40;;;;;;;9.61;3.94;;;;;;;1.08;94.60;99997.16;2327380;68;20299;-79
2021/11/08 07:13:46;;;;;;;6.54;4.63;;;;;;;1.13;94.67;100005.91;2328562;68;20287;-78
2021/11/08 07:16:48;;;;;;;8.80;5.18;;;;;;;1.16;94.40;100015.38;2327614;66;20952;-78
2021/11/08 07:19:51;;;;;;;17.27;6.31;;;;;;;1.16;94.40;100016.25;2329165;68;20310;-78
2021/11/08 07:26:14;;;;;;;13.06;6.55;;;;;;;1.21;94.77;100019.88;2325460;68;20979;-77
2021/11/08 07:29:17;;;;;;;17.09;7.59;;;;;;;1.29;94.91;100030.47;2327093;68;20697;-77
2021/11/08 07:32:19;;;;;;;22.80;8.31;;;;;;;1.33;94.75;100042.56;2325664;67;24864;-76
2021/11/08 07:35:22;;;;;;;16.02;8.71;;;;;;;1.37;94.93;100039.31;2325789;68;20311;-76
2021/11/08 07:38:25;;;;;;;18.02;6.49;;;;;;;1.44;94.92;100036.22;2325849;68;20279;-76
2021/11/08 07:41:27;;;;;;;12.86;5.90;;;;;;;1.48;94.67;100039.78;2327374;68;20367;-76
2021/11/08 07:44:30;;;;;;;17.29;6.70;;;;;;;1.44;94.42;100046.47;2327368;68;20863;-76
2021/11/08 07:47:32;;;;;;;10.26;5.61;;;;;;;1.44;94.41;100041.34;2324981;67;22260;-76
2021/11/08 07:50:36;;;;;;;27.08;6.20;;;;;;;1.48;94.57;100048.34;2326062;68;20375;-76
2021/11/08 07:53:39;;;;;;;15.45;7.13;;;;;;;1.48;94.34;100053.44;2326349;68;20307;-76
2021/11/08 07:56:42;;;;;;;19.48;8.16;;;;;;;1.52;94.85;100050.19;2324469;68;20291;-76
2021/11/08 07:59:45;;;;;;;18.70;8.46;;;;;;;1.59;94.94;100046.22;2325217;68;20295;-76
2021/11/08 08:02:49;;;;;;;24.14;8.41;;;;;;;1.67;95.13;100049.09;2323660;66;24586;-76
2021/11/08 08:05:53;;;;;;;20.99;9.88;;;;;;;1.75;95.28;100050.28;2326117;68;20363;-76
2021/11/08 08:08:56;;;;;;;25.38;9.79;;;;;;;1.81;95.29;100048.88;2326289;68;20310;-76
2021/11/08 08:11:59;;;;;;;17.60;10.41;;;;;;;1.87;95.26;100053.34;2326279;68;20282;-76
2021/11/08 08:15:03;;;;;;;30.74;11.32;;;;;;;1.90;95.30;100048.34;2324262;68;20366;-76
2021/11/08 08:18:05;;;;;;;31.76;12.59;;;;;;;2.00;95.50;100040.25;2326855;66;20307;-76
2021/11/08 08:21:08;;;;;;;21.69;11.49;;;;;;;2.11;95.61;100040.66;2325786;68;20403;-76
2021/11/08 08:24:26;;;;;;;30.21;13.36;;;;;;;2.22;95.81;100031.69;2326623;68;20793;-76
2021/11/08 08:27:28;;;;;;;27.99;13.77;;;;;;;2.36;95.97;100040.81;2327058;68;20317;-76
2021/11/08 08:30:31;;;;;;;43.26;15.57;;;;;;;2.49;95.94;100043.81;2323679;66;20310;-76
2021/11/08 08:33:36;;;;;;;34.03;15.48;;;;;;;2.52;95.55;100039.72;2320633;68;20299;-75
2021/11/08 08:36:39;;;;;;;35.70;16.16;;;;;;;2.60;95.62;100039.97;2326425;68;20275;-75
2021/11/08 08:39:42;;;;;;;25.94;15.09;;;;;;;2.64;95.43;100042.72;2325503;68;20299;-75
2021/11/08 08:42:45;;;;;;;33.25;15.20;;;;;;;2.73;95.66;100049.88;2325256;68;20352;-75
2021/11/08 08:45:47;;;;;;;31.00;14.31;;;;;;;2.84;95.65;100048.56;2323607;66;21825;-76
2021/11/08 08:48:52;;;;;;;27.67;15.10;;;;;;;2.95;95.80;100042.16;2320350;68;20341;-75
2021/11/08 08:51:55;;;;;;;27.27;14.75;;;;;;;3.06;95.66;100037.44;2324552;68;20309;-75
2021/11/08 08:54:58;;;;;;;32.14;15.56;;;;;;;3.14;95.41;100037.69;2326973;68;20279;-75
2021/11/08 08:58:01;;;;;;;24.96;15.25;;;;;;;3.18;95.34;100042.97;2323654;68;20319;-75
2021/11/08 09:01:04;;;;;;;29.00;15.65;;;;;;;3.32;95.43;100036.63;2323373;67;20442;-76
2021/11/08 09:04:06;;;;;;;30.23;15.50;;;;;;;3.39;94.97;100035.16;2326257;68;20756;-76
2021/11/08 09:07:10;;;;;;;27.09;15.19;;;;;;;3.40;94.78;100034.31;2325992;68;21367;-76
2021/11/08 09:10:14;;;;;;;35.54;14.80;;;;;;;3.46;94.94;100042.25;2325662;68;20291;-76
2021/11/08 09:13:17;;;;;;;37.66;14.44;;;;;;;3.54;94.87;100037.38;2326380;68;20368;-76
2021/11/08 09:16:20;;;;;;;78.24;15.57;;;;;;;3.53;94.44;100044.19;2323942;66;21614;-76
2021/11/08 09:19:23;;;;;;;82.11;15.85;;;;;;;3.58;94.51;100050.34;2325724;68;20325;-76
2021/11/08 09:22:27;;;;;;;26.09;14.85;;;;;;;3.62;94.31;100041.97;2324316;68;20361;-76
2021/11/08 09:25:30;;;;;;;24.46;15.15;;;;;;;3.70;94.63;100043.91;2322885;68;20875;-75
2021/11/08 09:28:33;;;;;;;30.40;15.43;;;;;;;3.86;94.91;100033.31;2328952;68;20294;-75
2021/11/08 09:31:36;;;;;;;27.80;14.38;;;;;;;3.99;94.86;100048.31;2324779;66;23692;-76
2021/11/08 09:34:47;;;;;;;19.04;12.26;;;;;;;4.04;94.60;100048.44;2326896;68;20332;-76
2021/11/08 09:37:50;;;;;;;22.04;11.14;;;;;;;4.18;94.82;100039.50;2325424;68;20295;-76
2021/11/08 09:40:53;;;;;;;18.42;9.84;;;;;;;4.32;94.89;100043.38;2326438;68;20751;-76
2021/11/08 09:43:59;;;;;;;23.30;9.26;;;;;;;4.40;94.68;100043.59;2327547;68;20295;-77
2021/11/08 09:47:02;;;;;;;20.10;8.85;;;;;;;4.42;93.81;100053.09;2323904;66;43596;-76
2021/11/08 09:50:08;;;;;;;15.85;8.75;;;;;;;4.43;93.57;100051.41;2326450;68;20304;-76
2021/11/08 09:53:11;;;;;;;13.32;8.21;;;;;;;4.50;93.71;100054.22;2320868;68;20758;-76
2021/11/08 09:56:15;;;;;;;13.27;6.96;;;;;;;4.62;93.67;100066.56;2325534;68;20283;-76
2021/11/08 09:59:21;;;;;;;11.18;6.26;;;;;;;4.63;93.14;100060.56;2325644;68;20781;-76
2021/11/08 10:02:24;;;;;;;8.79;5.32;;;;;;;4.67;92.91;100064.09;2323117;66;34787;-77
2021/11/08 10:05:30;;;;;;;7.93;5.35;;;;;;;4.70;92.65;100067.66;2325916;68;20295;-76
2021/11/08 10:08:51;;;;;;;7.80;4.68;;;;;;;4.77;92.57;100067.00;2326665;68;20303;-76
2021/11/08 10:11:53;;;;;;;7.53;4.91;;;;;;;4.85;92.14;100070.69;2326345;68;20303;-76
2021/11/08 10:14:56;;;;;;;10.35;5.25;;;;;;;4.97;92.11;100071.88;2321621;68;20864;-77
2021/11/08 10:18:01;;;;;;;9.07;5.24;;;;;;;5.03;91.56;100079.78;2324199;66;23825;-76
2021/11/08 10:21:10;;;;;;;9.40;6.61;;;;;;;5.10;91.45;100081.69;2326151;68;20323;-77
2021/11/08 10:24:18;;;;;;;15.43;6.51;;;;;;;5.20;91.60;100077.66;2327371;68;20332;-77
2021/11/08 10:27:20;;;;;;;15.76;7.16;;;;;;;5.28;91.23;100078.75;2326973;68;20307;-77
2021/11/08 10:30:31;;;;;;;15.46;7.55;;;;;;;5.34;91.17;100076.34;2324572;66;24044;-77
2021/11/08 10:33:34;;;;;;;12.50;7.56;;;;;;;5.35;90.85;100081.53;2325790;68;20311;-77
2021/11/08 10:36:37;;;;;;;15.94;8.05;;;;;;;5.35;90.07;100076.38;2325861;68;20366;-77
2021/11/08 10:39:40;;;;;;;17.35;8.39;;;;;;;5.38;90.12;100073.00;2326049;68;20322;-77
2021/11/08 10:42:57;;;;;;;14.84;8.40;;;;;;;5.43;89.96;100079.19;2326579;68;20316;-77
2021/11/08 10:46:03;;;;;;;14.73;8.52;;;;;;;5.58;90.29;100074.44;2324920;66;21273;-76
2021/11/08 10:49:12;;;;;;;15.98;9.46;;;;;;;5.73;90.31;100069.66;2326375;68;20847;-77
2021/11/08 10:52:18;;;;;;;18.89;10.10;;;;;;;5.78;89.64;100074.09;2326059;68;20304;-77
2021/11/08 10:55:30;;;;;;;17.66;10.14;;;;;;;5.81;89.27;100077.63;2327747;68;20322;-77
2021/11/08 10:58:34;;;;;;;22.52;10.09;;;;;;;5.86;89.13;100077.72;2326684;68;20299;-77
2021/11/08 11:01:44;;;;;;;17.21;9.68;;;;;;;5.97;89.37;100076.34;2324135;66;20868;-77
2021/11/08 11:04:52;;;;;;;19.08;9.60;;;;;;;6.06;89.62;100066.22;2326674;68;20324;-77
2021/11/08 11:08:02;;;;;;;19.20;10.10;;;;;;;6.09;89.46;100063.72;2327514;68;20770;-77
2021/11/08 11:11:06;;;;;;;19.83;10.82;;;;;;;6.19;89.65;100067.41;2326634;68;20367;-77
2021/11/08 11:14:08;;;;;;;19.11;9.95;;;;;;;6.26;89.38;100064.13;2328498;68;20287;-77
2021/11/08 11:17:24;;;;;;;21.27;10.66;;;;;;;6.30;89.16;100059.09;2325693;66;20334;-77
2021/11/08 11:20:34;;;;;;;20.31;11.11;;;;;;;6.33;88.94;100055.72;2327699;68;20279;-77
2021/11/08 11:23:44;;;;;;;24.23;10.74;;;;;;;6.42;88.98;100048.19;2326354;68;20282;-78
2021/11/08 11:26:51;;;;;;;25.67;11.75;;;;;;;6.46;88.56;100055.16;2328246;68;20346;-78
2021/11/08 11:30:09;;;;;;;23.74;12.27;;;;;;;6.46;88.13;100054.28;2327226;68;20318;-78
2021/11/08 11:33:15;;;;;;;25.32;11.93;;;;;;;6.55;88.29;100055.38;2325755;66;20995;-78
2021/11/08 11:36:19;;;;;;;22.79;11.57;;;;;;;6.70;88.40;100043.66;2327365;68;20155;-77
2021/11/08 11:39:22;;;;;;;22.52;12.26;;;;;;;6.73;87.71;100046.28;2325830;68;20282;-77
2021/11/08 11:42:25;;;;;;;25.30;12.27;;;;;;;6.78;87.57;100047.25;2325264;68;20319;-77
2021/11/08 11:45:29;;;;;;;21.74;11.43;;;;;;;6.73;87.47;100039.41;2324292;66;23207;-77
2021/11/08 11:48:34;;;;;;;25.67;11.74;;;;;;;6.69;87.62;100040.19;2326521;68;20279;-77
2021/11/08 11:51:50;;;;;;;23.55;11.29;;;;;;;6.67;87.71;100039.28;2326890;68;20428;-77
2021/11/08 11:54:52;;;;;;;23.77;12.48;;;;;;;6.73;87.78;100041.13;2327321;68;20283;-77
2021/11/08 11:57:56;;;;;;;30.48;13.68;;;;;;;6.77;87.67;100032.59;2327512;68;20326;-77
2021/11/08 12:00:59;;;;;;;33.14;13.69;;;;;;;6.90;88.56;100043.22;2320759;66;23052;-77
2021/11/08 12:04:03;;;;;;;29.86;14.70;;;;;;;6.98;88.46;100038.19;2326012;68;20288;-77
2021/11/08 12:07:06;;;;;;;31.24;15.00;;;;;;;7.02;88.05;100034.88;2326077;68;20286;-77
2021/11/08 12:10:09;;;;;;;30.36;14.49;;;;;;;7.07;87.94;100030.66;2326129;68;20872;-77
2021/11/08 12:13:15;;;;;;;31.98;14.65;;;;;;;7.11;87.45;100019.53;2324653;68;20291;-77
2021/11/08 12:16:20;;;;;;;30.86;14.57;;;;;;;7.11;87.19;100022.13;2324851;66;21867;-77
2021/11/08 12:19:26;;;;;;;27.45;13.74;;;;;;;7.21;87.62;100016.31;2321361;68;20311;-77
2021/11/08 12:22:31;;;;;;;23.15;13.21;;;;;;;7.33;87.91;100010.47;2326334;68;20279;-77
2021/11/08 12:25:43;;;;;;;24.33;12.61;;;;;;;7.40;88.02;100011.47;2331060;68;20381;-77
2021/11/08 12:28:47;;;;;;;27.34;12.94;;;;;;;7.43;87.19;100008.94;2326010;68;20287;-77
2021/11/08 12:32:00;;;;;;;30.16;13.61;;;;;;;7.40;86.45;100008.91;2325680;66;22263;-77
2021/11/08 12:35:13;;;;;;;30.30;14.52;;;;;;;7.49;86.62;100020.25;2326848;68;20319;-77
2021/11/08 12:38:34;;;;;;;29.16;14.76;;;;;;;7.52;86.38;100022.03;2326343;68;20291;-77
2021/11/08 12:41:48;;;;;;;27.66;14.57;;;;;;;7.62;86.46;100018.78;2326771;68;20367;-77
2021/11/08 12:44:51;;;;;;;33.50;14.93;;;;;;;7.69;86.25;100015.44;2326599;68;20420;-77
2021/11/08 12:48:14;;;;;;;33.54;15.65;;;;;;;7.77;86.53;100013.88;2326833;66;30298;-77
2021/11/08 12:51:22;;;;;;;28.83;14.90;;;;;;;7.76;86.45;100012.13;2326334;68;20348;-77
2021/11/08 12:54:26;;;;;;;33.94;17.38;;;;;;;7.78;86.44;100009.56;2325535;68;20363;-77
2021/11/08 12:57:31;;;;;;;35.05;18.67;;;;;;;7.87;86.65;100010.56;2326178;68;20305;-77
2021/11/08 13:00:40;;;;;;;32.89;17.61;;;;;;;8.02;86.70;99997.03;2325470;66;21136;-77
2021/11/08 13:03:45;;;;;;;28.69;15.14;;;;;;;8.07;86.22;100003.13;2326943;68;20478;-77
2021/11/08 13:06:48;;;;;;;31.29;15.79;;;;;;;8.11;85.99;99996.31;2326029;68;20291;-77
2021/11/08 13:09:56;;;;;;;30.10;15.41;;;;;;;8.13;85.43;99994.63;2327108;68;20373;-77
2021/11/08 13:13:00;;;;;;;30.66;16.13;;;;;;;8.21;85.56;99998.16;2326844;68;20279;-77
2021/11/08 13:16:07;;;;;;;31.74;14.91;;;;;;;8.17;84.83;99996.38;2324569;66;20632;-77
2021/11/08 13:19:16;;;;;;;29.95;14.51;;;;;;;8.15;84.53;99991.19;2326144;68;20663;-77
2021/11/08 13:22:41;;;;;;;29.59;15.24;;;;;;;8.18;84.45;100006.75;2325968;68;20295;-77
2021/11/08 13:25:50;;;;;;;29.14;14.80;;;;;;;8.21;84.82;99998.16;2326303;68;20722;-77
2021/11/08 13:28:53;;;;;;;28.51;13.31;;;;;;;8.24;84.85;100010.28;2326181;68;20294;-77
2021/11/08 13:31:56;;;;;;;30.44;14.70;;;;;;;8.22;84.70;100007.66;2325982;67;20383;-77
2021/11/08 13:35:10;;;;;;;28.95;14.25;;;;;;;8.25;84.86;100017.19;2326319;68;20313;-77
2021/11/08 13:38:17;;;;;;;27.36;13.65;;;;;;;8.25;84.92;100010.28;2326172;68;20298;-77
2021/11/08 13:41:24;;;;;;;31.58;14.35;;;;;;;8.29;85.11;100012.09;2327353;68;20355;-77
2021/11/08 13:44:26;;;;;;;29.58;14.49;;;;;;;8.33;85.21;100013.00;2326414;68;20287;-77
2021/11/08 13:47:41;;;;;;;32.04;14.52;;;;;;;8.36;85.24;100002.72;2323799;66;22032;-77
2021/11/08 13:50:44;;;;;;;30.39;14.77;;;;;;;8.40;85.40;100005.38;2325340;68;20291;-77
2021/11/08 13:53:51;;;;;;;32.40;14.13;;;;;;;8.45;85.54;99997.72;2324968;68;20355;-77
2021/11/08 13:57:02;;;;;;;;;;;;;;;8.48;85.22;99996.03;2326323;68;20312;-77
2021/11/08 14:00:10;;;;;;;24.23;12.31;;;;;;;8.50;85.06;99998.63;2326233;68;20532;-77
2021/11/08 14:03:15;;;;;;;28.41;13.30;;;;;;;8.51;84.93;100002.09;2326443;66;25009;-77
2021/11/08 14:06:35;;;;;;;27.10;13.50;;;;;;;8.50;85.16;100002.94;2327267;68;20391;-77
2021/11/08 14:09:40;;;;;;;33.91;14.06;;;;;;;8.51;85.06;100002.09;2325905;68;21102;-77
2021/11/08 14:12:43;;;;;;;26.06;13.60;;;;;;;8.50;84.91;100001.22;2326614;68;20283;-78
2021/11/08 14:15:56;;;;;;;35.39;14.43;;;;;;;8.50;85.18;99993.44;2325137;66;20315;-77
2021/11/08 14:18:59;;;;;;;27.71;14.44;;;;;;;8.46;85.38;99992.53;2327006;68;20324;-77
2021/11/08 14:22:02;;;;;;;27.73;14.31;;;;;;;8.45;85.67;99998.56;2326409;68;20330;-77
2021/11/08 14:25:10;;;;;;;31.36;14.24;;;;;;;8.46;85.68;100004.63;2326170;68;20326;-77
2021/11/08 14:28:12;;;;;;;26.42;12.39;;;;;;;8.46;85.39;99994.25;2325800;68;20327;-77
2021/11/08 14:31:19;;;;;;;30.61;13.06;;;;;;;8.46;85.53;100008.06;2318547;66;21955;-77
2021/11/08 14:34:30;;;;;;;29.26;13.13;;;;;;;8.46;85.89;99999.44;2324268;68;20287;-77
2021/11/08 14:37:49;;;;;;;30.91;13.43;;;;;;;8.45;86.13;99995.97;2326273;68;20342;-77
2021/11/08 14:40:51;;;;;;;25.27;12.44;;;;;;;8.43;86.71;99995.06;2326669;68;20342;-77
2021/11/08 14:44:00;;;;;;;31.84;13.81;;;;;;;8.40;86.96;100002.78;2325563;68;20239;-77
2021/11/08 14:47:23;;;;;;;30.15;13.43;;;;;;;8.36;87.11;100002.72;2324594;66;21274;-77
2021/11/08 14:50:28;;;;;;;30.17;14.26;;;;;;;8.32;87.42;100009.56;2326357;68;20231;-77
2021/11/08 14:53:35;;;;;;;31.65;13.50;;;;;;;8.28;87.53;100010.38;2326154;68;20279;-77
2021/11/08 14:56:41;;;;;;;29.54;12.98;;;;;;;8.23;87.56;100013.72;2325660;68;20896;-78
2021/11/08 14:59:44;;;;;;;31.66;13.07;;;;;;;8.14;87.58;100014.47;2310973;68;20291;-77
2021/11/08 15:02:48;;;;;;;40.38;13.48;;;;;;;8.05;87.50;100017.75;2323735;66;20320;-77
2021/11/08 15:05:51;;;;;;;30.09;13.89;;;;;;;7.94;87.44;100018.44;2325362;68;20291;-77
2021/11/08 15:09:14;;;;;;;29.67;12.41;;;;;;;7.83;87.67;100021.72;2323756;68;20342;-78
2021/11/08 15:12:26;;;;;;;27.51;13.07;;;;;;;7.75;87.86;100019.84;2323711;68;21130;-77
2021/11/08 15:15:51;;;;;;;27.16;12.13;;;;;;;7.57;87.75;100013.53;2322389;66;24134;-77
2021/11/08 15:19:03;;;;;;;29.74;12.02;;;;;;;7.41;87.91;100008.06;2328591;68;20326;-77
2021/11/08 15:22:07;;;;;;;24.40;11.46;;;;;;;7.27;88.44;100019.00;2323985;68;20303;-78
2021/11/08 15:25:32;;;;;;;25.79;11.60;;;;;;;7.21;89.09;100016.31;2319861;68;20279;-78
2021/11/08 15:28:35;;;;;;;26.45;10.10;;;;;;;7.12;89.30;100025.56;2324387;68;20868;-77
2021/11/08 15:31:41;;;;;;;28.45;11.56;;;;;;;7.02;89.35;100021.09;2323562;66;26830;-77
2021/11/08 15:34:44;;;;;;;26.83;10.95;;;;;;;6.94;89.59;100021.78;2324071;68;20299;-77
2021/11/08 15:37:52;;;;;;;25.34;11.01;;;;;;;6.85;89.66;100013.00;2323964;68;20295;-77
2021/11/08 15:40:55;;;;;;;26.80;11.66;;;;;;;6.74;89.82;100022.22;2324953;68;20328;-78
2021/11/08 15:43:58;;;;;;;25.81;11.13;;;;;;;6.61;89.85;100019.38;2326250;68;20332;-77
2021/11/08 15:47:02;;;;;;;29.08;11.20;;;;;;;6.50;90.04;100028.59;2322539;67;21185;-78
2021/11/08 15:50:06;;;;;;;27.38;12.04;;;;;;;6.40;90.26;100021.47;2323141;68;20328;-77
2021/11/08 15:53:09;;;;;;;25.61;11.51;;;;;;;6.29;90.37;100020.38;2324010;68;20856;-77
2021/11/08 15:56:11;;;;;;;25.64;11.05;;;;;;;6.17;90.52;100025.25;2324213;68;20302;-78
2021/11/08 15:59:14;;;;;;;29.94;11.82;;;;;;;6.06;90.78;100032.72;2322888;68;21218;-77
2021/11/08 16:02:17;;;;;;;24.83;10.21;;;;;;;5.94;90.96;100028.16;2320932;66;22515;-77
2021/11/08 16:05:19;;;;;;;27.08;10.60;;;;;;;5.82;91.05;100029.53;2324004;68;20978;-77
2021/11/08 16:08:22;;;;;;;23.79;9.93;;;;;;;5.71;91.16;100037.84;2322751;68;20324;-77
2021/11/08 16:11:25;;;;;;;22.77;10.16;;;;;;;5.60;91.02;100038.44;2324242;68;20335;-76
2021/11/08 16:14:27;;;;;;;23.24;9.91;;;;;;;5.45;91.17;100044.91;2317682;68;20683;-76